Time;durP1;ratioP1;P1;durP2;ratioP2;P2;SDS_P1;SDS_P2;PMS_P1;PMS_P2;Temp;Humidity;BMP_temperature;BMP_pressure;BME280_temperature;BME280_humidity;BME280_pressure;Samples;Min_cycle;Max_cycle;Signal;HPM_P1;HPM_P2
2023/12/19 00:01:46;;;;;;;16.98;8.40;;;3.00;66.30;;;;;;4940087;29;20035;-80
2023/12/19 00:04:11;;;;;;;13.45;7.53;;;3.10;66.40;;;;;;4941399;29;20031;-85
2023/12/19 00:06:37;;;;;;;19.33;9.05;;;3.00;65.60;;;;;;4941061;29;20071;-85
2023/12/19 00:09:03;;;;;;;15.48;8.05;;;3.10;66.60;;;;;;4941663;29;20373;-86
2023/12/19 00:11:28;;;;;;;15.77;7.75;;;3.10;65.30;;;;;;4941162;29;20457;-81
2023/12/19 00:13:54;;;;;;;15.93;7.38;;;3.10;65.00;;;;;;4941176;29;20473;-85
2023/12/19 00:16:19;;;;;;;13.25;6.75;;;3.10;64.90;;;;;;4957718;28;20090;-85
2023/12/19 00:18:45;;;;;;;14.63;7.63;;;3.20;64.80;;;;;;4940505;29;20019;-84
2023/12/19 00:21:10;;;;;;;14.75;7.97;;;3.30;64.70;;;;;;4940065;29;20043;-83
2023/12/19 00:23:36;;;;;;;13.10;7.97;;;3.40;64.40;;;;;;4940535;29;20317;-84
2023/12/19 00:26:02;;;;;;;13.95;8.10;;;3.40;63.80;;;;;;4957652;29;20023;-84
2023/12/19 00:28:27;;;;;;;15.68;7.28;;;3.30;63.40;;;;;;4940518;29;20039;-85
2023/12/19 00:30:56;;;;;;;14.93;6.70;;;3.30;63.90;;;;;;4940787;29;20031;-84
2023/12/19 00:33:23;;;;;;;13.82;7.03;;;3.20;64.00;;;;;;4957503;29;20027;-86
2023/12/19 00:35:48;;;;;;;14.00;6.85;;;3.20;64.20;;;;;;4940611;29;20047;-84
2023/12/19 00:38:14;;;;;;;14.68;7.07;;;3.20;63.70;;;;;;4940090;29;20095;-84
2023/12/19 00:40:39;;;;;;;11.73;6.55;;;3.10;63.50;;;;;;4939410;29;20034;-83
2023/12/19 00:43:05;;;;;;;12.10;6.70;;;3.00;63.60;;;;;;4941324;29;20383;-87
2023/12/19 00:45:31;;;;;;;11.05;6.47;;;3.00;63.90;;;;;;4941100;29;20031;-84
2023/12/19 00:47:56;;;;;;;13.00;6.47;;;3.10;64.10;;;;;;4941081;29;20024;-84
2023/12/19 00:50:22;;;;;;;11.23;5.35;;;3.10;63.50;;;;;;4957339;29;20027;-84
2023/12/19 00:52:47;;;;;;;11.18;5.63;;;3.10;64.20;;;;;;4940616;29;20376;-84
2023/12/19 00:55:13;;;;;;;12.20;6.15;;;3.20;63.10;;;;;;4940542;29;20040;-85
2023/12/19 00:57:38;;;;;;;9.70;5.45;;;3.20;63.00;;;;;;4940601;29;20028;-85
2023/12/19 01:00:06;;;;;;;9.82;4.65;;;3.30;63.00;;;;;;4941148;29;20019;-78
2023/12/19 01:02:32;;;;;;;8.02;4.93;;;3.30;63.00;;;;;;4958110;29;20134;-91
2023/12/19 01:04:57;;;;;;;9.32;5.35;;;3.30;63.10;;;;;;4957838;29;20030;-81
2023/12/19 01:07:23;;;;;;;10.57;5.75;;;3.30;63.10;;;;;;4956446;28;20496;-82
2023/12/19 01:09:49;;;;;;;11.57;6.85;;;3.30;63.20;;;;;;4957181;28;20038;-85
2023/12/19 01:12:15;;;;;;;10.38;5.95;;;3.20;62.40;;;;;;4939654;29;20035;-81
2023/12/19 01:14:41;;;;;;;13.20;7.15;;;3.00;62.50;;;;;;4956848;29;20499;-82
2023/12/19 01:17:07;;;;;;;12.77;6.65;;;3.00;63.00;;;;;;4957055;29;20031;-83
2023/12/19 01:19:33;;;;;;;11.40;6.47;;;2.90;63.40;;;;;;4965755;29;20087;-77
2023/12/19 01:21:58;;;;;;;11.27;6.43;;;2.90;63.40;;;;;;4978857;28;20110;-78
2023/12/19 01:24:24;;;;;;;12.23;5.75;;;2.90;63.70;;;;;;4973423;29;20045;-79
2023/12/19 01:26:51;;;;;;;10.60;5.00;;;2.90;63.70;;;;;;4964165;29;20066;-86
2023/12/19 01:29:17;;;;;;;8.50;4.78;;;2.90;63.70;;;;;;4965181;29;20370;-83
2023/12/19 01:31:43;;;;;;;8.02;4.90;;;2.90;63.70;;;;;;4963917;28;20055;-83
2023/12/19 01:34:09;;;;;;;8.35;4.50;;;2.90;63.50;;;;;;4964654;29;20020;-84
2023/12/19 01:36:35;;;;;;;8.13;3.88;;;2.90;63.00;;;;;;4956418;28;20037;-82
2023/12/19 01:39:00;;;;;;;7.30;4.13;;;3.00;61.50;;;;;;4955882;29;20032;-83
2023/12/19 01:41:26;;;;;;;9.68;3.72;;;3.00;60.90;;;;;;4955743;28;20432;-83
2023/12/19 01:43:58;;;;;;;7.30;4.13;;;3.10;60.50;;;;;;4955487;29;20026;-83
2023/12/19 01:46:23;;;;;;;13.98;5.28;;;3.10;60.70;;;;;;4955714;29;20041;-83
2023/12/19 01:48:49;;;;;;;8.27;4.22;;;3.00;61.40;;;;;;4955481;28;20648;-83
2023/12/19 01:51:14;;;;;;;7.00;4.22;;;2.90;60.50;;;;;;4955542;28;20051;-84
2023/12/19 01:53:44;;;;;;;7.00;3.65;;;3.00;60.00;;;;;;4955849;29;20027;-84
2023/12/19 01:56:11;;;;;;;7.75;4.18;;;3.10;60.00;;;;;;4955970;28;20047;-83
2023/12/19 01:58:37;;;;;;;7.30;3.90;;;3.10;60.10;;;;;;4955666;29;20031;-82
2023/12/19 02:01:04;;;;;;;6.57;3.33;;;3.20;60.70;;;;;;4955852;28;20038;-84
2023/12/19 02:03:31;;;;;;;7.82;4.07;;;3.30;59.60;;;;;;4938919;29;20054;-84
2023/12/19 02:05:58;;;;;;;10.02;3.95;;;3.40;59.40;;;;;;4959142;29;20473;-85
2023/12/19 02:08:24;;;;;;;8.07;3.45;;;3.40;58.30;;;;;;4958117;29;20026;-82
2023/12/19 02:10:49;;;;;;;11.50;3.97;;;3.40;58.00;;;;;;4945809;29;20027;-83
2023/12/19 02:13:15;;;;;;;6.57;4.30;;;3.40;57.90;;;;;;4958042;29;20030;-85
2023/12/19 02:15:40;;;;;;;11.27;6.22;;;3.40;58.20;;;;;;4959127;29;20047;-81
2023/12/19 02:18:17;;;;;;;11.07;5.78;;;3.20;59.00;;;;;;4968150;28;20370;-81
2023/12/19 02:20:42;;;;;;;9.65;5.97;;;3.00;60.30;;;;;;4969736;29;20038;-82
2023/12/19 02:23:10;;;;;;;10.93;5.93;;;2.90;61.30;;;;;;4969599;28;20023;-81
2023/12/19 02:25:35;;;;;;;8.27;4.70;;;2.80;62.30;;;;;;4963956;28;20058;-83
2023/12/19 02:28:01;;;;;;;7.25;3.97;;;2.70;61.80;;;;;;4958599;28;20031;-85
2023/12/19 02:30:27;;;;;;;9.23;3.95;;;2.70;61.80;;;;;;4956911;28;20019;-84
2023/12/19 02:32:52;;;;;;;6.85;3.38;;;2.80;61.70;;;;;;4956072;28;20392;-83
2023/12/19 02:35:18;;;;;;;8.77;2.92;;;2.80;61.60;;;;;;4955700;28;20028;-85
2023/12/19 02:37:43;;;;;;;6.00;3.25;;;2.80;61.20;;;;;;4955481;29;20050;-85
2023/12/19 02:40:10;;;;;;;5.03;3.30;;;2.90;60.80;;;;;;4956453;29;20023;-83
2023/12/19 02:42:40;;;;;;;6.45;2.92;;;2.90;60.30;;;;;;4955950;28;20461;-82
2023/12/19 02:45:07;;;;;;;5.68;3.08;;;2.90;59.90;;;;;;4955692;29;20020;-85
2023/12/19 02:47:33;;;;;;;6.72;3.03;;;2.90;59.30;;;;;;4955187;28;20045;-84
2023/12/19 02:49:59;;;;;;;5.45;3.30;;;3.00;59.10;;;;;;4955389;29;20024;-83
2023/12/19 02:52:25;;;;;;;6.78;3.40;;;3.10;59.00;;;;;;4938476;29;20061;-85
2023/12/19 02:54:50;;;;;;;5.18;3.00;;;3.10;59.10;;;;;;4955019;28;20039;-82
2023/12/19 02:57:16;;;;;;;6.20;3.55;;;3.10;58.80;;;;;;4955504;29;20455;-81
2023/12/19 02:59:41;;;;;;;4.70;3.10;;;3.10;58.50;;;;;;4954521;29;20030;-80
2023/12/19 03:02:07;;;;;;;7.25;3.13;;;3.10;58.50;;;;;;4937767;29;20094;-83
2023/12/19 03:04:32;;;;;;;5.47;2.78;;;3.10;58.50;;;;;;4955736;28;20027;-82
2023/12/19 03:06:58;;;;;;;5.50;3.35;;;3.10;57.70;;;;;;4959036;28;20043;-82
2023/12/19 03:09:24;;;;;;;7.50;4.38;;;3.20;57.70;;;;;;4959249;29;20023;-83
2023/12/19 03:12:04;;;;;;;10.30;5.35;;;3.20;58.00;;;;;;4958901;29;20016;-83
2023/12/19 03:14:34;;;;;;;8.23;4.70;;;3.00;59.10;;;;;;4958592;28;20030;-82
2023/12/19 03:17:02;;;;;;;9.00;5.10;;;2.90;59.80;;;;;;4958629;29;20393;-80
2023/12/19 03:19:28;;;;;;;7.30;4.57;;;2.80;60.40;;;;;;4958725;29;20334;-82
2023/12/19 03:21:54;;;;;;;8.00;4.22;;;2.60;60.80;;;;;;4941655;29;20380;-78
2023/12/19 03:24:20;;;;;;;6.40;4.32;;;2.60;61.10;;;;;;4958266;29;20078;-80
2023/12/19 03:26:46;;;;;;;7.55;4.05;;;2.50;61.60;;;;;;4940924;29;20122;-80
2023/12/19 03:29:12;;;;;;;9.15;4.40;;;2.50;61.90;;;;;;4941089;29;20094;-82
2023/12/19 03:31:37;;;;;;;5.57;3.90;;;2.50;62.20;;;;;;4958423;29;20031;-82
2023/12/19 03:34:03;;;;;;;5.88;3.78;;;2.50;62.50;;;;;;4958092;29;20082;-82
2023/12/19 03:36:29;;;;;;;9.10;4.18;;;2.50;62.20;;;;;;4958388;29;20049;-83
2023/12/19 03:38:54;;;;;;;6.88;3.58;;;2.40;62.30;;;;;;4940873;29;20023;-82
2023/12/19 03:41:20;;;;;;;7.60;4.10;;;2.40;62.60;;;;;;4957949;29;20362;-80
2023/12/19 03:43:45;;;;;;;6.38;3.55;;;2.30;62.90;;;;;;4940863;29;20480;-80
2023/12/19 03:46:11;;;;;;;6.65;3.58;;;2.30;63.10;;;;;;4941483;29;20050;-84
2023/12/19 03:48:36;;;;;;;8.60;3.35;;;2.40;62.20;;;;;;4941533;29;20496;-84
2023/12/19 03:51:03;;;;;;;5.72;3.80;;;2.50;61.20;;;;;;4941747;29;20031;-84
2023/12/19 03:53:29;;;;;;;5.20;3.35;;;2.50;61.20;;;;;;4941928;29;20027;-85
2023/12/19 03:55:54;;;;;;;5.40;3.05;;;2.50;61.20;;;;;;4958350;28;20078;-84
2023/12/19 03:58:20;;;;;;;5.22;3.20;;;2.60;60.40;;;;;;4941470;29;20031;-84
2023/12/19 04:00:46;;;;;;;5.53;3.35;;;2.60;59.90;;;;;;4941096;29;20473;-84
2023/12/19 04:03:11;;;;;;;6.13;3.05;;;2.70;59.50;;;;;;4941330;29;20074;-83
2023/12/19 04:05:37;;;;;;;4.30;2.85;;;2.70;59.30;;;;;;4940940;29;20069;-80
2023/12/19 04:08:03;;;;;;;5.45;3.60;;;2.70;59.10;;;;;;4939960;29;20025;-80
2023/12/19 04:10:29;;;;;;;4.28;2.55;;;2.70;59.40;;;;;;4940381;29;20023;-81
2023/12/19 04:12:54;;;;;;;3.92;2.88;;;2.70;58.80;;;;;;4940518;29;20019;-79
2023/12/19 04:15:20;;;;;;;5.15;2.90;;;2.80;58.70;;;;;;4939879;29;20023;-81
2023/12/19 04:17:45;;;;;;;8.00;3.38;;;2.80;58.70;;;;;;4940616;29;20046;-82
2023/12/19 04:20:12;;;;;;;5.97;2.95;;;2.80;59.00;;;;;;4941058;29;20030;-85
2023/12/19 04:22:38;;;;;;;7.03;3.20;;;2.80;58.90;;;;;;4941862;29;20040;-86
2023/12/19 04:25:05;;;;;;;6.38;3.17;;;2.70;59.20;;;;;;4941680;29;20047;-81
2023/12/19 04:27:30;;;;;;;5.30;3.10;;;2.70;59.60;;;;;;4925265;29;20170;-85
2023/12/19 04:29:56;;;;;;;8.60;3.40;;;2.80;59.10;;;;;;4941993;29;20061;-87
2023/12/19 04:32:22;;;;;;;8.75;4.10;;;2.80;58.80;;;;;;4942756;29;20038;-87
2023/12/19 04:34:48;;;;;;;9.48;4.13;;;2.80;58.50;;;;;;4941168;29;20042;-82
2023/12/19 04:37:14;;;;;;;7.03;3.47;;;2.70;58.70;;;;;;4940478;29;20035;-83
2023/12/19 04:39:39;;;;;;;7.03;4.03;;;2.80;58.90;;;;;;4925453;29;20122;-87
2023/12/19 04:42:07;;;;;;;8.73;4.00;;;2.80;59.00;;;;;;4942121;29;20031;-86
2023/12/19 04:44:33;;;;;;;7.85;4.25;;;2.80;58.90;;;;;;4940786;29;20417;-85
2023/12/19 04:46:59;;;;;;;8.57;3.55;;;2.80;59.00;;;;;;4939544;29;20058;-77
2023/12/19 04:49:24;;;;;;;6.93;3.63;;;2.80;59.70;;;;;;4956688;28;20417;-79
2023/12/19 04:51:52;;;;;;;7.60;3.60;;;2.70;59.00;;;;;;4956607;29;20031;-79
2023/12/19 04:54:17;;;;;;;8.05;3.15;;;2.80;58.40;;;;;;4939390;29;20020;-78
2023/12/19 04:56:43;;;;;;;5.43;3.47;;;2.80;58.50;;;;;;4939079;29;20054;-81
2023/12/19 04:59:09;;;;;;;8.82;4.22;;;2.80;58.80;;;;;;4939382;29;20118;-81
2023/12/19 05:01:36;;;;;;;7.55;3.60;;;2.70;59.80;;;;;;4939185;29;20114;-79
2023/12/19 05:04:01;;;;;;;9.18;5.13;;;2.60;60.10;;;;;;4939176;29;20130;-79
2023/12/19 05:06:27;;;;;;;7.60;4.70;;;2.50;60.70;;;;;;4956221;28;20528;-80
2023/12/19 05:08:52;;;;;;;9.90;4.93;;;2.40;60.90;;;;;;4943360;29;20039;-80
2023/12/19 05:11:18;;;;;;;10.98;5.07;;;2.30;61.30;;;;;;4952326;29;20113;-81
2023/12/19 05:13:44;;;;;;;10.23;5.03;;;2.30;61.80;;;;;;4949669;29;20035;-79
2023/12/19 05:16:16;;;;;;;9.48;4.65;;;2.20;63.00;;;;;;4941341;29;20031;-81
2023/12/19 05:18:42;;;;;;;10.77;5.47;;;2.10;62.30;;;;;;4923589;29;20044;-82
2023/12/19 05:21:09;;;;;;;10.05;5.10;;;2.00;62.60;;;;;;4937030;29;20028;-83
2023/12/19 05:23:35;;;;;;;9.45;4.40;;;2.00;62.70;;;;;;4948225;29;20346;-83
2023/12/19 05:26:02;;;;;;;8.07;3.78;;;2.00;63.00;;;;;;4950514;28;20173;-84
2023/12/19 05:28:28;;;;;;;8.23;3.90;;;2.00;62.90;;;;;;4940244;29;20031;-86
2023/12/19 05:30:56;;;;;;;7.18;3.72;;;2.00;63.20;;;;;;4949010;28;20080;-86
2023/12/19 05:33:29;;;;;;;12.10;5.03;;;2.10;63.10;;;;;;4959875;28;20038;-86
2023/12/19 05:35:55;;;;;;;8.93;4.70;;;2.00;63.20;;;;;;4959589;28;20031;-85
2023/12/19 05:38:22;;;;;;;6.97;3.85;;;2.00;63.00;;;;;;4960599;28;20054;-84
2023/12/19 05:40:48;;;;;;;7.45;3.17;;;2.00;63.10;;;;;;4958208;28;20495;-84
2023/12/19 05:43:14;;;;;;;5.85;2.92;;;2.10;62.50;;;;;;4958895;28;20019;-84
2023/12/19 05:45:40;;;;;;;5.03;3.00;;;2.20;61.40;;;;;;4976286;28;20468;-85
2023/12/19 05:48:06;;;;;;;7.00;3.63;;;2.20;60.40;;;;;;4958213;28;20026;-80
2023/12/19 05:50:32;;;;;;;5.82;3.45;;;2.30;60.30;;;;;;4957935;28;20054;-80
2023/12/19 05:52:58;;;;;;;5.20;3.08;;;2.40;60.30;;;;;;4975150;28;20031;-81
2023/12/19 05:55:24;;;;;;;7.55;3.65;;;2.40;60.00;;;;;;4957340;28;20047;-82
2023/12/19 05:57:49;;;;;;;7.38;3.25;;;2.40;60.20;;;;;;4958083;28;20027;-79
2023/12/19 06:00:15;;;;;;;5.63;3.28;;;2.40;59.90;;;;;;4957441;28;20051;-84
2023/12/19 06:02:41;;;;;;;6.13;3.55;;;2.50;59.80;;;;;;4958002;28;20200;-84
2023/12/19 06:05:07;;;;;;;7.65;3.35;;;2.40;59.80;;;;;;4958398;28;20054;-82
2023/12/19 06:07:37;;;;;;;6.70;3.50;;;2.40;59.90;;;;;;4958004;28;20085;-83
2023/12/19 06:10:08;;;;;;;9.02;4.38;;;2.40;60.20;;;;;;4957631;28;20023;-76
2023/12/19 06:12:34;;;;;;;13.48;7.43;;;2.40;60.60;;;;;;4957236;28;20027;-76
2023/12/19 06:15:01;;;;;;;8.18;4.65;;;2.30;61.30;;;;;;4956940;28;20065;-77
2023/12/19 06:17:28;;;;;;;7.05;3.70;;;2.20;61.00;;;;;;4974493;28;20149;-78
2023/12/19 06:19:55;;;;;;;9.40;3.70;;;2.20;61.20;;;;;;4957352;28;20022;-80
2023/12/19 06:22:20;;;;;;;6.90;3.90;;;2.30;61.00;;;;;;4975903;28;20034;-77
2023/12/19 06:24:46;;;;;;;7.15;3.42;;;2.30;60.20;;;;;;4976919;28;20030;-81
2023/12/19 06:27:15;;;;;;;5.57;3.22;;;2.40;60.10;;;;;;4956687;28;20019;-81
2023/12/19 06:29:42;;;;;;;5.18;2.90;;;2.50;59.30;;;;;;4977497;28;20030;-85
2023/12/19 06:32:11;;;;;;;6.78;2.70;;;2.60;58.60;;;;;;4975764;28;20023;-87
2023/12/19 06:34:36;;;;;;;8.73;3.40;;;2.70;58.10;;;;;;4959813;28;20033;-81
2023/12/19 06:37:03;;;;;;;7.93;4.10;;;2.70;58.30;;;;;;4959376;28;20039;-83
2023/12/19 06:39:28;;;;;;;9.48;4.60;;;2.80;58.50;;;;;;4980074;28;20022;-82
2023/12/19 06:41:55;;;;;;;27.25;17.40;;;2.80;58.30;;;;;;4961080;28;20094;-79
2023/12/19 06:44:21;;;;;;;63.50;50.10;;;2.70;58.40;;;;;;4978011;28;20054;-77
2023/12/19 06:46:49;;;;;;;23.77;19.38;;;2.70;58.20;;;;;;4977530;28;20038;-83
2023/12/19 06:49:21;;;;;;;27.55;14.70;;;2.80;58.00;;;;;;4961540;28;20058;-81
2023/12/19 06:51:47;;;;;;;20.27;8.88;;;2.80;57.40;;;;;;4961185;28;20030;-83
2023/12/19 06:54:13;;;;;;;21.42;13.38;;;2.80;57.40;;;;;;4944724;28;20030;-81
2023/12/19 06:56:39;;;;;;;14.65;7.47;;;2.90;57.00;;;;;;4960412;28;20047;-79
2023/12/19 06:59:06;;;;;;;20.27;12.70;;;2.90;57.10;;;;;;4960031;28;20027;-78
2023/12/19 07:01:31;;;;;;;10.57;7.60;;;3.00;57.10;;;;;;4977820;28;20046;-79
2023/12/19 07:03:57;;;;;;;8.90;4.60;;;3.00;57.10;;;;;;4977744;28;20082;-84
2023/12/19 07:06:23;;;;;;;9.45;3.80;;;3.00;56.50;;;;;;4960805;28;20027;-79
2023/12/19 07:08:48;;;;;;;7.47;3.97;;;3.00;56.60;;;;;;4960317;28;20117;-83
2023/12/19 07:11:14;;;;;;;17.20;4.65;;;3.00;55.90;;;;;;4978170;28;20107;-83
2023/12/19 07:13:40;;;;;;;12.82;5.68;;;3.00;56.00;;;;;;4960944;28;20048;-82
2023/12/19 07:16:06;;;;;;;14.70;9.00;;;3.10;56.10;;;;;;4960472;28;20417;-82
2023/12/19 07:18:32;;;;;;;18.60;9.48;;;3.10;56.20;;;;;;4960301;28;20429;-80
2023/12/19 07:20:57;;;;;;;7.75;4.38;;;3.10;56.20;;;;;;4977719;28;20038;-82
2023/12/19 07:23:24;;;;;;;5.97;3.22;;;3.10;56.30;;;;;;4960319;28;20023;-80
2023/12/19 07:25:50;;;;;;;7.15;3.55;;;3.10;55.60;;;;;;4977639;28;20058;-80
2023/12/19 07:28:16;;;;;;;5.53;2.90;;;3.10;55.90;;;;;;4977715;28;20062;-78
2023/12/19 07:30:42;;;;;;;10.05;3.50;;;3.10;55.70;;;;;;4977331;28;20062;-79
2023/12/19 07:33:07;;;;;;;14.85;3.95;;;3.10;56.10;;;;;;4977572;28;20049;-81
2023/12/19 07:35:33;;;;;;;11.85;3.70;;;3.20;56.30;;;;;;4977797;28;20058;-82
2023/12/19 07:37:58;;;;;;;9.10;3.70;;;3.20;55.80;;;;;;4977838;28;20495;-81
2023/12/19 07:40:24;;;;;;;9.15;4.00;;;3.20;55.70;;;;;;4977545;28;20661;-81
2023/12/19 07:42:49;;;;;;;9.25;3.97;;;3.20;55.30;;;;;;4977816;28;20030;-81
2023/12/19 07:45:15;;;;;;;7.72;4.00;;;3.20;55.10;;;;;;4978681;28;20062;-80
2023/12/19 07:47:41;;;;;;;10.48;4.97;;;3.20;55.60;;;;;;4961955;28;20026;-79
2023/12/19 07:50:07;;;;;;;7.15;4.25;;;3.20;55.40;;;;;;4981606;28;20037;-79
2023/12/19 07:52:33;;;;;;;10.93;4.13;;;3.20;55.50;;;;;;4977957;28;20022;-79
2023/12/19 07:54:59;;;;;;;7.95;4.28;;;3.20;56.20;;;;;;4959806;28;20571;-79
2023/12/19 07:57:24;;;;;;;5.80;3.63;;;3.20;56.20;;;;;;4977041;28;20039;-81
2023/12/19 07:59:50;;;;;;;6.72;3.42;;;3.30;56.40;;;;;;4977596;28;20461;-80
2023/12/19 08:02:16;;;;;;;5.68;3.40;;;3.30;56.40;;;;;;4977611;28;20035;-81
2023/12/19 08:04:44;;;;;;;7.65;3.42;;;3.40;56.20;;;;;;4977426;28;20037;-81
2023/12/19 08:07:10;;;;;;;7.97;3.63;;;3.40;56.20;;;;;;4959003;28;20051;-81
2023/12/19 08:09:35;;;;;;;8.45;4.03;;;3.50;56.30;;;;;;4976884;28;20070;-83
2023/12/19 08:12:02;;;;;;;8.00;3.95;;;3.50;56.20;;;;;;4960457;28;20026;-84
2023/12/19 08:14:27;;;;;;;9.80;4.40;;;3.50;56.30;;;;;;4979151;28;20077;-83
2023/12/19 08:16:53;;;;;;;15.95;5.45;;;3.50;56.20;;;;;;4980132;28;20079;-80
2023/12/19 08:19:19;;;;;;;12.18;4.65;;;3.60;55.00;;;;;;4967081;28;20038;-87
2023/12/19 08:21:52;;;;;;;10.15;4.20;;;3.60;55.00;;;;;;4977892;28;20027;-87
2023/12/19 08:24:18;;;;;;;6.88;4.07;;;3.70;55.00;;;;;;4990271;28;20034;-87
2023/12/19 08:26:50;;;;;;;15.43;7.88;;;3.90;54.90;;;;;;4989747;28;20027;-87
2023/12/19 08:29:16;;;;;;;19.08;12.70;;;4.00;54.80;;;;;;4981349;28;20022;-84
2023/12/19 08:31:44;;;;;;;10.98;5.82;;;4.10;54.60;;;;;;4978482;28;20026;-86
2023/12/19 08:34:09;;;;;;;29.75;18.90;;;4.20;54.20;;;;;;4977075;28;20138;-80
2023/12/19 08:36:35;;;;;;;17.77;7.03;;;4.30;53.70;;;;;;4976238;28;20481;-74
2023/12/19 08:39:01;;;;;;;10.77;5.78;;;4.60;69.40;;;;;;4975863;28;20480;-76
2023/12/19 08:44:45;;;;;;;37.53;17.20;;;5.70;72.80;;;;;;4964062;23;20055;-74
2023/12/19 08:47:11;;;;;;;36.25;15.07;;;6.10;60.10;;;;;;4956654;29;20151;-79
2023/12/19 08:49:39;;;;;;;23.85;11.05;;;6.40;55.10;;;;;;4956365;29;20027;-79
2023/12/19 08:52:06;;;;;;;24.75;14.02;;;6.70;50.30;;;;;;4939521;29;20034;-74
2023/12/19 08:57:26;;;;;;;13.38;7.47;;;7.10;45.20;;;;;;4972020;23;20062;-77
2023/12/19 08:59:52;;;;;;;17.08;7.03;;;7.50;49.20;;;;;;5414588;23;20087;-76
2023/12/19 09:02:17;;;;;;;11.10;6.60;;;7.90;46.20;;;;;;4944989;23;20078;-77
2023/12/19 09:04:43;;;;;;;9.90;6.65;;;8.40;45.50;;;;;;4939229;29;20027;-78
2023/12/19 09:07:09;;;;;;;13.07;6.78;;;8.90;45.50;;;;;;4956208;29;20027;-77
2023/12/19 09:09:34;;;;;;;16.73;8.05;;;9.30;41.60;;;;;;4956347;28;20361;-77
2023/12/19 09:12:00;;;;;;;12.43;6.53;;;9.50;41.80;;;;;;4958593;28;20362;-77
2023/12/19 09:14:25;;;;;;;14.20;7.00;;;9.50;40.50;;;;;;4939040;29;20433;-78
2023/12/19 09:20:15;;;;;;;13.05;8.68;;;10.30;39.40;;;;;;5095331;23;20058;-77
2023/12/19 09:22:40;;;;;;;9.88;7.30;;;10.70;37.90;;;;;;4956850;29;20019;-79
2023/12/19 09:25:13;;;;;;;10.85;6.65;;;10.90;36.80;;;;;;4957160;29;20110;-78
2023/12/19 09:27:43;;;;;;;9.85;5.63;;;11.10;27.10;;;;;;4939608;29;20031;-80
2023/12/19 09:30:10;;;;;;;11.48;7.80;;;11.40;29.80;;;;;;4940065;29;20027;-78
2023/12/19 09:32:38;;;;;;;12.05;7.15;;;11.60;33.20;;;;;;4940945;29;20500;-77
2023/12/19 09:35:04;;;;;;;14.38;8.57;;;11.80;33.40;;;;;;4956663;29;20046;-78
2023/12/19 09:37:30;;;;;;;18.40;12.52;;;11.90;33.20;;;;;;4947128;29;20035;-78
2023/12/19 09:39:55;;;;;;;26.23;16.08;;;12.10;31.60;;;;;;4939818;29;20071;-77
2023/12/19 09:42:22;;;;;;;60.72;43.03;;;12.30;31.30;;;;;;4956775;29;20055;-78
2023/12/19 09:44:48;;;;;;;58.75;39.17;;;12.50;32.10;;;;;;4939424;29;20038;-79
2023/12/19 09:47:23;;;;;;;31.05;22.05;;;12.70;32.50;;;;;;4938970;29;20399;-78
2023/12/19 09:49:52;;;;;;;27.92;18.35;;;12.70;32.20;;;;;;4955577;29;20042;-78
2023/12/19 09:52:22;;;;;;;16.25;11.05;;;12.80;32.40;;;;;;4938630;29;20055;-79
2023/12/19 09:54:50;;;;;;;16.45;8.50;;;13.00;28.40;;;;;;4938727;29;20069;-78
2023/12/19 09:57:17;;;;;;;23.25;13.20;;;13.20;26.20;;;;;;4938513;29;20070;-79
2023/12/19 09:59:45;;;;;;;12.40;8.23;;;13.50;29.00;;;;;;4938590;29;20032;-79
2023/12/19 10:02:11;;;;;;;9.85;6.88;;;13.70;28.30;;;;;;4938241;29;20027;-78
2023/12/19 10:04:37;;;;;;;3.80;2.95;;;14.00;25.60;;;;;;4938006;29;20027;-75
2023/12/19 10:07:04;;;;;;;8.85;5.97;;;14.40;18.70;;;;;;4955175;28;20050;-75
2023/12/19 10:09:30;;;;;;;10.07;5.55;;;14.70;22.60;;;;;;4937720;29;20030;-78
2023/12/19 10:12:12;;;;;;;7.90;5.35;;;15.00;22.20;;;;;;4937629;29;20023;-80
2023/12/19 10:14:38;;;;;;;10.48;6.50;;;15.40;23.10;;;;;;4937572;29;20030;-79
2023/12/19 10:17:11;;;;;;;8.45;5.55;;;15.80;22.30;;;;;;4936967;29;20129;-77
2023/12/19 10:19:38;;;;;;;6.72;5.00;;;16.20;19.30;;;;;;4937819;29;20043;-79
2023/12/19 10:22:09;;;;;;;5.90;2.10;;;16.50;17.40;;;;;;4955075;28;20062;-79
2023/12/19 10:24:36;;;;;;;0.40;0.30;;;16.90;13.70;;;;;;4938239;29;20024;-80
2023/12/19 10:27:06;;;;;;;0.15;0.13;;;16.80;8.70;;;;;;4938124;29;20050;-78
2023/12/19 10:29:36;;;;;;;0.63;0.30;;;16.90;8.30;;;;;;4956014;28;20464;-77
2023/12/19 10:32:19;;;;;;;1.38;0.38;;;17.10;8.50;;;;;;4956678;29;20035;-76
2023/12/19 10:34:46;;;;;;;0.52;0.10;;;16.90;9.60;;;;;;4941662;29;20212;-75
2023/12/19 10:37:13;;;;;;;0.20;0.20;;;16.60;8.30;;;;;;4938133;29;20155;-77
2023/12/19 10:39:41;;;;;;;0.68;0.38;;;16.30;8.30;;;;;;4954863;29;20023;-76
2023/12/19 10:42:09;;;;;;;3.28;0.30;;;16.30;8.50;;;;;;4937113;29;20032;-76
2023/12/19 10:44:40;;;;;;;1.02;0.63;;;16.70;8.70;;;;;;4954360;29;20149;-79
2023/12/19 10:47:10;;;;;;;0.70;0.60;;;17.40;9.40;;;;;;4937545;29;20027;-79
2023/12/19 10:49:39;;;;;;;0.47;0.30;;;18.30;9.30;;;;;;4923899;29;20035;-78
2023/12/19 10:52:09;;;;;;;1.10;1.00;;;19.00;8.20;;;;;;4918906;29;20028;-78
2023/12/19 10:54:36;;;;;;;1.80;1.60;;;19.50;8.40;;;;;;4935413;29;20027;-77
2023/12/19 10:57:17;;;;;;;2.28;1.30;;;20.00;7.30;;;;;;4919715;29;20039;-77
2023/12/19 11:00:10;;;;;;;1.55;0.80;;;20.40;6.90;;;;;;4936618;29;20497;-75
2023/12/19 11:02:54;;;;;;;0.95;0.80;;;20.90;8.20;;;;;;4935672;29;20055;-76
2023/12/19 11:05:31;;;;;;;0.25;0.22;;;21.20;6.60;;;;;;4918864;29;20158;-76
2023/12/19 11:08:02;;;;;;;0.68;0.55;;;20.90;5.90;;;;;;4918518;29;20028;-78
2023/12/19 11:10:32;;;;;;;0.82;0.40;;;21.20;5.50;;;;;;4918588;29;20031;-75
2023/12/19 11:12:58;;;;;;;0.50;0.20;;;21.60;5.40;;;;;;4918444;29;20024;-74
2023/12/19 11:15:25;;;;;;;0.93;0.30;;;22.00;5.20;;;;;;4935061;29;20063;-75
2023/12/19 11:18:13;;;;;;;1.30;0.70;;;22.30;5.10;;;;;;4935462;29;20453;-75
2023/12/19 11:21:20;;;;;;;0.50;0.40;;;22.40;5.40;;;;;;4918218;29;20214;-77
2023/12/19 11:24:07;;;;;;;0.40;0.20;;;22.90;5.20;;;;;;4895193;29;20044;-76
2023/12/19 11:26:43;;;;;;;0.77;0.20;;;22.90;4.30;;;;;;4920359;29;20035;-76
2023/12/19 11:29:47;;;;;;;0.70;0.10;;;22.60;4.40;;;;;;4921533;29;20028;-76
2023/12/19 11:32:28;;;;;;;0.22;0.22;;;22.60;5.00;;;;;;4938636;29;20043;-78
2023/12/19 11:35:09;;;;;;;1.10;0.50;;;23.40;4.90;;;;;;4921618;29;20047;-77
2023/12/19 11:37:36;;;;;;;3.35;1.65;;;24.10;4.50;;;;;;4938533;29;20199;-78
2023/12/19 11:40:06;;;;;;;1.33;1.08;;;24.40;3.90;;;;;;4921774;29;20030;-78
2023/12/19 11:42:37;;;;;;;0.82;0.63;;;23.50;5.00;;;;;;4921874;29;20082;-77
2023/12/19 11:45:18;;;;;;;2.65;0.52;;;24.20;4.60;;;;;;4921300;29;20016;-78
2023/12/19 11:47:47;;;;;;;1.40;0.40;;;24.90;4.40;;;;;;4921936;29;20039;-80
2023/12/19 11:50:39;;;;;;;2.42;0.82;;;24.00;5.10;;;;;;4921525;29;20028;-78
2023/12/19 11:53:08;;;;;;;1.40;0.50;;;24.60;5.40;;;;;;4921514;29;20044;-79
2023/12/19 11:55:34;;;;;;;3.13;1.10;;;25.00;5.50;;;;;;4921468;29;20032;-78
2023/12/19 11:58:10;;;;;;;1.83;1.00;;;25.50;5.20;;;;;;4921526;29;20485;-77
2023/12/19 12:00:35;;;;;;;2.72;1.60;;;26.90;4.70;;;;;;4925880;29;20032;-77
2023/12/19 12:03:11;;;;;;;5.25;1.10;;;28.20;4.20;;;;;;4938020;29;20030;-80
2023/12/19 12:05:39;;;;;;;1.45;1.30;;;28.50;4.10;;;;;;4921664;29;20119;-78
2023/12/19 12:08:05;;;;;;;4.03;1.83;;;27.60;5.20;;;;;;4938335;29;20115;-77
2023/12/19 12:10:31;;;;;;;4.55;3.40;;;26.50;6.90;;;;;;4905530;29;20031;-75
2023/12/19 12:12:59;;;;;;;5.13;1.80;;;24.90;8.50;;;;;;4920857;29;20028;-76
2023/12/19 12:15:25;;;;;;;3.17;1.70;;;23.40;9.90;;;;;;4937991;29;20473;-80
2023/12/19 12:18:05;;;;;;;4.50;1.90;;;21.90;12.10;;;;;;4921174;29;20039;-80
2023/12/19 12:20:34;;;;;;;4.35;1.30;;;21.60;12.80;;;;;;4920975;29;20107;-83
2023/12/19 12:23:02;;;;;;;5.80;1.60;;;22.40;10.90;;;;;;4906425;29;20036;-81
2023/12/19 12:25:28;;;;;;;1.73;1.20;;;22.60;11.00;;;;;;4921016;29;20078;-76
2023/12/19 12:28:08;;;;;;;4.13;1.70;;;23.00;10.20;;;;;;4920752;29;20473;-76
2023/12/19 12:30:34;;;;;;;1.90;1.45;;;22.90;10.00;;;;;;4921123;29;20031;-76
2023/12/19 12:33:03;;;;;;;2.58;1.52;;;23.50;9.80;;;;;;4937774;29;20027;-81
2023/12/19 12:35:32;;;;;;;3.17;1.52;;;24.80;9.20;;;;;;4920865;29;20621;-75
2023/12/19 12:38:04;;;;;;;2.83;1.67;;;25.90;7.80;;;;;;4920595;29;20032;-76
2023/12/19 12:40:30;;;;;;;3.80;1.50;;;25.80;7.40;;;;;;4920538;29;20450;-74
2023/12/19 12:43:33;;;;;;;1.77;1.30;;;24.30;8.10;;;;;;4937691;29;20481;-78
2023/12/19 12:46:13;;;;;;;0.93;0.60;;;22.70;9.40;;;;;;4920968;29;20114;-77
2023/12/19 12:48:47;;;;;;;2.40;1.10;;;20.60;11.20;;;;;;4937696;29;20579;-82
2023/12/19 12:51:16;;;;;;;1.75;1.08;;;19.20;13.60;;;;;;4920563;29;20374;-77
2023/12/19 12:53:42;;;;;;;2.00;1.20;;;18.20;16.20;;;;;;4937918;29;20477;-83
2023/12/19 12:56:14;;;;;;;2.13;0.77;;;17.40;17.20;;;;;;4921458;29;20043;-82
2023/12/19 12:58:42;;;;;;;5.30;3.38;;;16.70;18.20;;;;;;4937637;29;20525;-76
2023/12/19 13:01:09;;;;;;;2.50;1.63;;;16.00;18.10;;;;;;4920438;29;20397;-81
2023/12/19 13:03:35;;;;;;;3.50;2.00;;;15.20;18.80;;;;;;4920673;29;20165;-81
2023/12/19 13:06:01;;;;;;;1.20;1.00;;;14.70;19.80;;;;;;4920906;29;20028;-77